createdAt,value
2018-10-17T00:00:25.105Z,12.30
2018-10-17T00:02:53.052Z,11.05
2018-10-17T00:05:20.369Z,12.18
2018-10-17T00:07:48.104Z,13.45
2018-10-17T00:10:15.494Z,12.90
2018-10-17T00:12:47.568Z,13.08
2018-10-17T00:15:14.935Z,13.05
2018-10-17T00:17:42.330Z,11.97
2018-10-17T00:20:11.170Z,13.45
2018-10-17T00:22:39.347Z,14.18
2018-10-17T00:25:07.117Z,11.70
2018-10-17T00:27:34.472Z,12.75
2018-10-17T00:30:01.819Z,13.20
2018-10-17T00:32:29.284Z,13.38
2018-10-17T00:34:56.630Z,12.40
2018-10-17T00:37:24.019Z,13.50
2018-10-17T00:39:52.019Z,13.28
2018-10-17T00:42:19.444Z,14.18
2018-10-17T00:44:46.841Z,12.45
2018-10-17T00:47:14.300Z,12.95
2018-10-17T00:49:41.578Z,14.10
2018-10-17T00:52:08.925Z,12.85
2018-10-17T00:54:36.310Z,13.48
2018-10-17T00:57:03.699Z,13.10
2018-10-17T00:59:31.222Z,14.45
2018-10-17T01:01:58.524Z,13.00
2018-10-17T01:04:26.072Z,15.03
2018-10-17T01:06:53.711Z,14.10
2018-10-17T01:09:21.950Z,13.32
2018-10-17T01:11:49.324Z,13.72
2018-10-17T01:14:17.142Z,13.38
2018-10-17T01:16:44.428Z,13.43
2018-10-17T01:19:12.010Z,13.05
2018-10-17T01:21:40.199Z,13.10
2018-10-17T01:24:07.945Z,12.75
2018-10-17T01:26:35.288Z,13.58
2018-10-17T01:29:03.242Z,13.10
2018-10-17T01:31:30.560Z,13.35
2018-10-17T01:33:57.912Z,15.20
2018-10-17T01:38:56.671Z,15.05
2018-10-17T01:41:24.200Z,13.62
2018-10-17T01:43:51.589Z,13.95
2018-10-17T01:46:23.154Z,14.87
2018-10-17T01:48:51.009Z,14.33
2018-10-17T01:51:18.457Z,15.00
2018-10-17T01:53:45.834Z,13.93
2018-10-17T01:56:13.639Z,14.07
2018-10-17T01:58:41.656Z,13.38
2018-10-17T02:01:09.105Z,14.70
2018-10-17T02:03:36.900Z,14.10
2018-10-17T02:06:09.470Z,13.22
2018-10-17T02:08:37.569Z,14.95
2018-10-17T02:11:07.182Z,14.60
2018-10-17T02:13:35.218Z,13.72
2018-10-17T02:16:02.601Z,13.35
2018-10-17T02:18:29.963Z,12.88
2018-10-17T02:20:57.559Z,14.63
2018-10-17T02:23:25.967Z,13.25
2018-10-17T02:25:53.455Z,13.32
2018-10-17T02:28:21.566Z,13.05
2018-10-17T02:30:48.901Z,14.75
2018-10-17T02:33:16.279Z,13.62
2018-10-17T02:35:45.198Z,14.75
2018-10-17T02:38:12.574Z,15.53
2018-10-17T02:40:40.087Z,13.25
2018-10-17T02:43:07.541Z,15.45
2018-10-17T02:45:34.894Z,14.83
2018-10-17T02:48:02.250Z,13.70
2018-10-17T02:50:30.359Z,13.98
2018-10-17T02:53:01.928Z,14.10
2018-10-17T02:55:29.277Z,12.75
2018-10-17T02:57:56.673Z,14.53
2018-10-17T03:00:25.330Z,12.50
2018-10-17T03:02:52.719Z,13.35
2018-10-17T03:05:20.114Z,14.03
2018-10-17T03:07:47.546Z,14.45
2018-10-17T03:10:15.591Z,14.38
2018-10-17T03:12:43.536Z,13.75
2018-10-17T03:15:10.921Z,14.43
2018-10-17T03:17:38.310Z,13.90
2018-10-17T03:20:06.650Z,13.53
2018-10-17T03:22:34.016Z,12.78
2018-10-17T03:25:01.535Z,13.85
2018-10-17T03:27:28.879Z,14.00
2018-10-17T03:29:56.242Z,14.98
2018-10-17T03:32:23.672Z,13.32
2018-10-17T03:34:52.280Z,13.80
2018-10-17T03:37:20.035Z,13.30
2018-10-17T03:39:48.790Z,12.43
2018-10-17T03:42:16.242Z,12.68
2018-10-17T03:44:49.044Z,11.70
2018-10-17T03:47:16.642Z,13.80
2018-10-17T03:49:48.570Z,13.00
2018-10-17T03:52:16.431Z,11.48
2018-10-17T03:54:43.817Z,12.33
2018-10-17T03:57:12.490Z,13.40
2018-10-17T03:59:40.091Z,14.18
2018-10-17T04:02:07.663Z,13.08
2018-10-17T04:04:35.651Z,13.62
2018-10-17T04:07:03.829Z,11.75
2018-10-17T04:09:31.241Z,12.37
2018-10-17T04:11:59.131Z,13.40
2018-10-17T04:14:27.096Z,12.55
2018-10-17T04:16:54.560Z,11.95
2018-10-17T04:19:21.931Z,12.73
2018-10-17T04:21:53.988Z,13.35
2018-10-17T04:24:21.490Z,12.37
2018-10-17T04:26:53.927Z,13.20
2018-10-17T04:29:21.392Z,14.10
2018-10-17T04:31:48.790Z,12.03
2018-10-17T04:34:16.888Z,13.60
2018-10-17T04:36:44.252Z,12.68
2018-10-17T04:39:16.418Z,12.70
2018-10-17T04:41:45.086Z,13.32
2018-10-17T04:44:13.180Z,13.95
2018-10-17T04:46:40.943Z,14.20
2018-10-17T04:49:09.757Z,14.60
2018-10-17T04:51:37.225Z,13.15
2018-10-17T04:54:05.149Z,13.68
2018-10-17T04:56:33.370Z,15.20
2018-10-17T04:59:00.870Z,13.65
2018-10-17T05:01:28.453Z,12.75
2018-10-17T05:03:57.837Z,12.60
2018-10-17T05:06:29.465Z,13.28
2018-10-17T05:08:56.896Z,13.38
2018-10-17T05:11:25.612Z,13.65
2018-10-17T05:13:54.142Z,14.13
2018-10-17T05:16:27.396Z,12.23
2018-10-17T05:21:22.670Z,12.85
2018-10-17T05:23:50.217Z,13.50
2018-10-17T05:26:18.748Z,11.75
2018-10-17T05:31:13.776Z,14.35
2018-10-17T05:33:41.138Z,14.45
2018-10-17T05:36:08.469Z,13.40
2018-10-17T05:38:35.754Z,13.38
2018-10-17T05:41:03.303Z,13.03
2018-10-17T05:43:30.800Z,12.35
2018-10-17T05:45:58.360Z,13.68
2018-10-17T05:48:25.832Z,13.03
2018-10-17T05:50:53.295Z,13.30
2018-10-17T05:53:21.082Z,12.43
2018-10-17T05:55:48.494Z,13.32
2018-10-17T05:58:16.156Z,13.55
2018-10-17T06:00:47.659Z,12.40
2018-10-17T06:03:15.495Z,12.93
2018-10-17T06:05:44.154Z,13.50
2018-10-17T06:08:16.573Z,13.43
2018-10-17T06:10:44.347Z,13.25
2018-10-17T06:13:11.719Z,13.55
2018-10-17T06:15:39.078Z,13.05
2018-10-17T06:18:06.438Z,13.05
2018-10-17T06:20:33.740Z,12.68
2018-10-17T06:23:01.061Z,12.28
2018-10-17T06:25:28.386Z,14.25
2018-10-17T06:27:55.687Z,15.25
2018-10-17T06:30:22.950Z,14.58
2018-10-17T06:32:50.238Z,12.82
2018-10-17T06:35:17.551Z,13.40
2018-10-17T06:37:44.880Z,12.30
2018-10-17T06:40:12.190Z,12.28
2018-10-17T06:42:39.520Z,13.83
2018-10-17T06:45:06.834Z,13.10
2018-10-17T06:47:34.834Z,13.15
2018-10-17T06:50:02.126Z,13.30
2018-10-17T06:52:29.442Z,13.58
2018-10-17T06:54:56.820Z,13.85
2018-10-17T06:57:24.138Z,11.83
2018-10-17T06:59:51.447Z,13.25
2018-10-17T07:02:19.384Z,13.30
2018-10-17T07:04:46.642Z,14.00
2018-10-17T07:07:14.006Z,14.25
2018-10-17T07:09:41.240Z,14.90
2018-10-17T07:12:08.566Z,13.88
2018-10-17T07:14:35.842Z,14.13
2018-10-17T07:17:03.231Z,13.83
2018-10-17T07:19:30.531Z,12.90
2018-10-17T07:21:58.241Z,14.15
2018-10-17T07:24:25.582Z,14.50
2018-10-17T07:26:52.981Z,12.80
2018-10-17T07:29:20.318Z,14.18
2018-10-17T07:31:47.543Z,13.68
2018-10-17T07:34:14.854Z,11.78
2018-10-17T07:36:42.159Z,11.88
2018-10-17T07:39:10.244Z,12.88
2018-10-17T07:41:37.539Z,14.00
2018-10-17T07:44:05.155Z,11.93
2018-10-17T07:46:32.456Z,12.95
2018-10-17T07:48:59.748Z,12.93
2018-10-17T07:51:27.049Z,12.73
2018-10-17T07:53:54.357Z,12.43
2018-10-17T07:56:21.642Z,12.78
2018-10-17T07:58:48.959Z,12.35
2018-10-17T08:01:16.339Z,13.18
2018-10-17T08:03:43.594Z,13.35
2018-10-17T08:06:10.924Z,12.85
2018-10-17T08:08:38.201Z,12.70
2018-10-17T08:11:05.548Z,13.68
2018-10-17T08:13:32.837Z,13.08
2018-10-17T08:16:00.239Z,13.45
2018-10-17T08:18:27.606Z,13.60
2018-10-17T08:20:54.997Z,13.88
2018-10-17T08:23:22.334Z,14.13
2018-10-17T08:25:49.647Z,13.53
2018-10-17T08:28:16.938Z,14.07
2018-10-17T08:30:44.186Z,13.65
2018-10-17T08:33:11.530Z,15.35
2018-10-17T08:35:38.987Z,16.40
2018-10-17T08:38:06.259Z,14.18
2018-10-17T08:40:33.462Z,13.35
2018-10-17T08:43:00.774Z,13.45
2018-10-17T08:45:28.147Z,13.78
2018-10-17T08:47:55.430Z,11.80
2018-10-17T08:50:22.730Z,13.60
2018-10-17T08:52:50.050Z,12.37
2018-10-17T08:55:18.053Z,13.03
2018-10-17T08:57:45.433Z,11.73
2018-10-17T09:00:12.732Z,12.07
2018-10-17T09:02:40.052Z,12.45
2018-10-17T09:05:07.366Z,11.05
2018-10-17T09:07:34.648Z,11.90
2018-10-17T09:10:01.966Z,11.10
2018-10-17T09:12:29.238Z,12.30
2018-10-17T09:14:56.643Z,12.70
2018-10-17T09:17:23.935Z,11.80
2018-10-17T09:19:51.523Z,12.60
2018-10-17T09:22:18.847Z,12.13
2018-10-17T09:24:45.870Z,11.20
2018-10-17T09:27:13.153Z,11.10
2018-10-17T09:29:40.423Z,10.93
2018-10-17T09:32:07.734Z,10.80
2018-10-17T09:34:35.048Z,10.77
2018-10-17T09:37:02.329Z,9.87
2018-10-17T09:39:29.614Z,9.40
2018-10-17T09:41:56.958Z,8.57
2018-10-17T09:44:24.210Z,10.00
2018-10-17T09:46:51.512Z,9.70
2018-10-17T09:49:18.868Z,9.00
2018-10-17T09:51:46.150Z,9.60
2018-10-17T09:54:13.535Z,9.87
2018-10-17T09:56:41.373Z,9.23
2018-10-17T09:59:08.664Z,10.83
2018-10-17T10:01:41.416Z,9.27
2018-10-17T10:04:08.757Z,8.90
2018-10-17T10:06:36.059Z,8.50
2018-10-17T10:09:03.742Z,7.90
2018-10-17T10:11:31.015Z,8.00
2018-10-17T10:13:58.318Z,5.50
2018-10-17T10:16:25.725Z,5.30
2018-10-17T10:18:53.014Z,4.80
2018-10-17T10:21:20.307Z,6.07
2018-10-17T10:23:47.742Z,6.30
2018-10-17T10:26:14.906Z,5.93
2018-10-17T10:28:42.374Z,5.67
2018-10-17T10:31:09.511Z,6.70
2018-10-17T10:33:36.982Z,6.00
2018-10-17T10:36:04.356Z,6.43
2018-10-17T10:38:31.655Z,5.70
2018-10-17T10:40:59.010Z,6.80
2018-10-17T10:43:26.308Z,7.30
2018-10-17T10:45:53.619Z,7.33
2018-10-17T10:48:20.901Z,6.50
2018-10-17T10:50:48.199Z,6.70
2018-10-17T10:53:15.510Z,6.97
2018-10-17T10:55:43.327Z,7.27
2018-10-17T10:58:10.644Z,6.43
2018-10-17T11:00:37.926Z,6.90
2018-10-17T11:03:07.391Z,6.63
2018-10-17T11:05:34.870Z,6.03
2018-10-17T11:08:02.285Z,6.77
2018-10-17T11:10:30.387Z,5.67
2018-10-17T11:12:57.762Z,6.23
2018-10-17T11:15:25.181Z,6.67
2018-10-17T11:17:53.894Z,6.97
2018-10-17T11:20:21.293Z,6.80
2018-10-17T11:22:48.686Z,7.03
2018-10-17T11:25:16.105Z,6.27
2018-10-17T11:27:43.767Z,7.00
2018-10-17T11:30:12.207Z,6.17
2018-10-17T11:32:44.298Z,6.70
2018-10-17T11:35:11.922Z,7.00
2018-10-17T11:37:39.606Z,7.77
2018-10-17T11:40:07.169Z,8.40
2018-10-17T11:42:39.027Z,6.47
2018-10-17T11:45:07.711Z,7.80
2018-10-17T11:47:35.481Z,6.30
2018-10-17T11:50:03.918Z,6.20
2018-10-17T11:52:31.627Z,7.53
2018-10-17T11:54:59.016Z,7.30
2018-10-17T11:57:26.311Z,6.90
2018-10-17T11:59:53.611Z,7.10
2018-10-17T12:02:20.908Z,6.90
2018-10-17T12:04:48.440Z,7.17
2018-10-17T12:07:15.511Z,6.20
2018-10-17T12:09:42.807Z,6.37
2018-10-17T12:12:10.143Z,6.27
2018-10-17T12:14:37.866Z,6.53
2018-10-17T12:17:05.207Z,7.00
2018-10-17T12:19:32.478Z,6.03
2018-10-17T12:21:59.740Z,6.60
2018-10-17T12:24:27.029Z,6.20
2018-10-17T12:26:54.284Z,6.47
2018-10-17T12:29:21.579Z,6.07
2018-10-17T12:31:48.983Z,7.50
2018-10-17T12:34:16.655Z,6.50
2018-10-17T12:36:44.001Z,6.07
2018-10-17T12:39:12.989Z,5.40
2018-10-17T12:41:40.792Z,6.70
2018-10-17T12:44:07.974Z,6.20
2018-10-17T12:46:35.343Z,6.30
2018-10-17T12:49:02.651Z,6.13
2018-10-17T12:51:30.027Z,6.80
2018-10-17T12:53:57.340Z,7.63
2018-10-17T12:56:24.636Z,5.93
2018-10-17T12:58:52.024Z,6.40
2018-10-17T13:01:19.431Z,6.30
2018-10-17T13:03:46.637Z,5.70
2018-10-17T13:06:13.957Z,5.70
2018-10-17T13:08:41.228Z,5.27
2018-10-17T13:11:08.669Z,6.83
2018-10-17T13:13:35.927Z,6.03
2018-10-17T13:16:03.253Z,5.57
2018-10-17T13:18:30.728Z,5.40
2018-10-17T13:20:58.018Z,6.80
2018-10-17T13:23:25.334Z,6.03
2018-10-17T13:25:52.686Z,6.30
2018-10-17T13:28:20.018Z,6.13
2018-10-17T13:30:47.308Z,7.00
2018-10-17T13:33:14.646Z,6.77
2018-10-17T13:35:41.919Z,6.00
2018-10-17T13:38:09.432Z,6.27
2018-10-17T13:40:36.752Z,5.43
2018-10-17T13:43:04.121Z,6.33
2018-10-17T13:45:31.526Z,6.00
2018-10-17T13:47:59.133Z,6.07
2018-10-17T13:50:26.426Z,6.03
2018-10-17T13:52:53.791Z,6.00
2018-10-17T13:55:21.123Z,5.70
2018-10-17T13:57:48.473Z,6.33
2018-10-17T14:00:15.703Z,5.87
2018-10-17T14:02:44.042Z,6.93
2018-10-17T14:05:11.331Z,5.77
2018-10-17T14:07:38.598Z,5.97
2018-10-17T14:10:05.945Z,5.70
2018-10-17T14:12:33.750Z,5.83
2018-10-17T14:15:01.114Z,5.37
2018-10-17T14:17:28.342Z,6.57
2018-10-17T14:19:55.721Z,6.70
2018-10-17T14:22:22.999Z,6.60
2018-10-17T14:24:50.302Z,6.40
2018-10-17T14:27:18.008Z,7.27
2018-10-17T14:29:45.471Z,6.87
2018-10-17T14:32:12.582Z,7.43
2018-10-17T14:34:39.978Z,6.57
2018-10-17T14:37:07.440Z,6.77
2018-10-17T14:39:34.735Z,7.17
2018-10-17T14:42:02.128Z,6.37
2018-10-17T14:44:29.350Z,7.03
2018-10-17T14:46:56.670Z,7.33
2018-10-17T14:49:24.010Z,7.50
2018-10-17T14:51:51.305Z,7.67
2018-10-17T14:54:18.617Z,6.23
2018-10-17T14:56:45.896Z,8.30
2018-10-17T14:59:13.279Z,7.40
2018-10-17T15:01:40.467Z,7.23
2018-10-17T15:04:07.779Z,7.97
2018-10-17T15:06:35.054Z,7.87
2018-10-17T15:09:02.554Z,7.13
2018-10-17T15:11:29.924Z,6.37
2018-10-17T15:13:57.177Z,7.43
2018-10-17T15:16:24.518Z,7.50
2018-10-17T15:18:51.812Z,7.83
2018-10-17T15:21:19.349Z,8.23
2018-10-17T15:23:46.621Z,8.13
2018-10-17T15:26:14.033Z,8.40
2018-10-17T15:28:41.326Z,9.30
2018-10-17T15:31:08.709Z,9.23
2018-10-17T15:33:35.947Z,9.50
2018-10-17T15:36:03.296Z,10.13
2018-10-17T15:38:30.654Z,9.10
2018-10-17T15:40:57.946Z,9.10
2018-10-17T15:43:26.024Z,11.27
2018-10-17T15:45:53.288Z,10.60
2018-10-17T15:48:20.595Z,10.60
2018-10-17T15:50:47.963Z,10.30
2018-10-17T15:53:15.333Z,12.20
2018-10-17T15:55:42.526Z,11.93
2018-10-17T15:58:09.859Z,11.80
2018-10-17T16:00:37.219Z,13.20
2018-10-17T16:03:04.835Z,12.23
2018-10-17T16:05:32.226Z,12.07
2018-10-17T16:10:35.841Z,11.63
2018-10-17T16:13:03.405Z,12.20
2018-10-17T16:15:30.739Z,11.17
2018-10-17T16:17:58.163Z,12.33
2018-10-17T16:20:25.466Z,13.43
2018-10-17T16:22:56.894Z,14.80
2018-10-17T16:25:24.256Z,12.97
2018-10-17T16:27:51.646Z,12.93
2018-10-17T16:30:19.116Z,13.40
2018-10-17T16:32:50.666Z,12.67
2018-10-17T16:35:18.622Z,12.20
2018-10-17T16:37:47.053Z,12.67
2018-10-17T16:40:15.343Z,14.07
2018-10-17T16:45:11.146Z,13.87
2018-10-17T16:47:39.139Z,13.57
2018-10-17T16:50:07.806Z,13.10
2018-10-17T16:52:35.653Z,13.10
2018-10-17T16:55:04.794Z,13.20
2018-10-17T16:57:32.218Z,14.40
2018-10-17T17:02:31.764Z,13.20
2018-10-17T17:04:59.150Z,12.60
2018-10-17T17:07:33.145Z,13.30
2018-10-17T17:10:00.778Z,12.75
2018-10-17T17:12:28.342Z,12.85
2018-10-17T17:14:55.937Z,12.70
2018-10-17T17:17:30.158Z,12.37
2018-10-17T17:19:57.596Z,11.90
2018-10-17T17:22:25.165Z,13.00
2018-10-17T17:24:53.252Z,13.70
2018-10-17T17:29:49.607Z,12.43
2018-10-17T17:32:17.370Z,12.37
2018-10-17T17:34:45.329Z,12.05
2018-10-17T17:37:16.713Z,12.15
2018-10-17T17:39:44.121Z,12.75
2018-10-17T17:42:11.881Z,12.78
2018-10-17T17:44:39.658Z,12.45
2018-10-17T17:47:14.561Z,12.55
2018-10-17T17:49:45.968Z,10.63
2018-10-17T17:52:17.620Z,12.63
2018-10-17T17:54:45.179Z,12.00
2018-10-17T17:57:13.683Z,14.85
2018-10-17T17:59:41.101Z,15.72
2018-10-17T18:02:09.350Z,17.37
2018-10-17T18:04:41.867Z,15.93
2018-10-17T18:07:09.891Z,16.55
2018-10-17T18:09:37.836Z,15.03
2018-10-17T18:12:06.177Z,16.85
2018-10-17T18:14:35.014Z,17.42
2018-10-17T18:17:02.464Z,16.20
2018-10-17T18:19:31.132Z,18.70
2018-10-17T18:21:58.849Z,18.90
2018-10-17T18:24:26.206Z,20.20
2018-10-17T18:26:54.273Z,20.15
2018-10-17T18:29:22.364Z,19.85
2018-10-17T18:31:49.797Z,19.75
2018-10-17T18:34:18.197Z,20.05
2018-10-17T18:36:46.112Z,22.07
2018-10-17T18:39:13.779Z,21.30
2018-10-17T18:41:41.675Z,20.05
2018-10-17T18:44:09.709Z,19.48
2018-10-17T18:46:37.219Z,20.00
2018-10-17T18:49:10.138Z,22.90
2018-10-17T18:51:42.150Z,21.50
2018-10-17T18:54:09.585Z,22.70
2018-10-17T18:56:36.992Z,22.40
2018-10-17T18:59:04.490Z,21.37
2018-10-17T19:01:32.030Z,22.85
2018-10-17T19:04:03.656Z,23.15
2018-10-17T19:06:31.476Z,21.62
2018-10-17T19:09:04.382Z,23.87
2018-10-17T19:11:31.712Z,23.67
2018-10-17T19:13:59.367Z,24.63
2018-10-17T19:16:26.862Z,25.15
2018-10-17T19:18:54.836Z,22.52
2018-10-17T19:21:22.306Z,24.05
2018-10-17T19:23:50.617Z,23.40
2018-10-17T19:26:18.421Z,23.18
2018-10-17T19:28:45.859Z,23.83
2018-10-17T19:31:13.205Z,22.27
2018-10-17T19:33:40.613Z,22.30
2018-10-17T19:36:08.200Z,22.85
2018-10-17T19:38:36.066Z,24.30
2018-10-17T19:41:03.448Z,23.50
2018-10-17T19:43:30.832Z,24.77
2018-10-17T19:46:02.890Z,26.55
2018-10-17T19:48:32.601Z,26.30
2018-10-17T19:51:00.083Z,27.15
2018-10-17T19:53:32.464Z,26.73
2018-10-17T19:55:59.937Z,27.67
2018-10-17T19:58:27.297Z,29.18
2018-10-17T20:00:54.756Z,25.10
2018-10-17T20:03:22.616Z,25.50
2018-10-17T20:05:50.744Z,25.85
2018-10-17T20:08:19.326Z,26.07
2018-10-17T20:10:46.788Z,25.12
2018-10-17T20:13:14.906Z,27.85
2018-10-17T20:15:49.148Z,26.05
2018-10-17T20:18:18.177Z,26.50
2018-10-17T20:20:45.737Z,27.60
2018-10-17T20:23:13.695Z,29.55
2018-10-17T20:25:41.160Z,26.95
2018-10-17T20:28:12.717Z,27.95
2018-10-17T20:30:40.092Z,27.40
2018-10-17T20:33:08.120Z,28.25
2018-10-17T20:35:35.448Z,28.90
2018-10-17T20:38:02.860Z,28.52
2018-10-17T20:40:30.861Z,25.92
2018-10-17T20:42:59.674Z,30.80
2018-10-17T20:45:27.346Z,30.32
2018-10-17T20:47:54.778Z,31.93
2018-10-17T20:50:23.805Z,29.42
2018-10-17T20:52:52.343Z,28.70
2018-10-17T20:55:20.008Z,29.72
2018-10-17T21:00:15.262Z,31.23
2018-10-17T21:02:43.126Z,28.38
2018-10-17T21:05:10.573Z,30.12
2018-10-17T21:07:37.969Z,31.40
2018-10-17T21:10:05.921Z,31.45
2018-10-17T21:12:33.381Z,30.40
2018-10-17T21:15:05.245Z,30.37
2018-10-17T21:17:32.568Z,32.67
2018-10-17T21:20:01.767Z,34.40
2018-10-17T21:22:29.639Z,30.68
2018-10-17T21:24:57.063Z,31.85
2018-10-17T21:27:24.487Z,31.90
2018-10-17T21:29:52.214Z,32.90
2018-10-17T21:32:20.364Z,32.35
2018-10-17T21:34:47.868Z,31.23
2018-10-17T21:37:15.279Z,30.10
2018-10-17T21:39:42.723Z,30.60
2018-10-17T21:42:11.554Z,30.43
2018-10-17T21:44:39.351Z,32.03
2018-10-17T21:49:34.823Z,33.65
2018-10-17T21:52:02.123Z,32.42
2018-10-17T21:54:29.963Z,32.83
2018-10-17T21:56:57.363Z,38.00
2018-10-17T21:59:26.210Z,35.03
2018-10-17T22:01:59.452Z,33.40
2018-10-17T22:04:27.515Z,33.20
2018-10-17T22:06:55.143Z,32.33
2018-10-17T22:09:22.736Z,34.95
2018-10-17T22:11:54.411Z,32.38
2018-10-17T22:14:22.708Z,32.88
2018-10-17T22:16:59.291Z,32.95
2018-10-17T22:19:26.783Z,30.95
2018-10-17T22:21:54.834Z,32.90
2018-10-17T22:24:26.580Z,35.60
2018-10-17T22:26:54.158Z,34.85
2018-10-17T22:29:21.686Z,35.68
2018-10-17T22:31:49.119Z,34.23
2018-10-17T22:34:16.539Z,36.95
2018-10-17T22:36:44.307Z,37.00
2018-10-17T22:39:15.031Z,35.95
2018-10-17T22:41:43.158Z,37.08
2018-10-17T22:44:14.639Z,33.88
2018-10-17T22:46:42.388Z,36.03
2018-10-17T22:49:10.630Z,37.75
2018-10-17T22:51:38.545Z,38.10
2018-10-17T22:54:07.441Z,34.92
2018-10-17T22:56:36.527Z,37.25
2018-10-17T22:59:03.951Z,40.25
2018-10-17T23:01:31.474Z,37.45
2018-10-17T23:03:59.013Z,38.75
2018-10-17T23:06:26.602Z,37.45
2018-10-17T23:08:58.142Z,35.80
2018-10-17T23:11:30.082Z,36.70
2018-10-17T23:13:58.376Z,36.05
2018-10-17T23:16:26.328Z,36.28
2018-10-17T23:18:54.429Z,36.68
2018-10-17T23:21:22.640Z,36.80
2018-10-17T23:23:50.327Z,37.05
2018-10-17T23:26:18.005Z,34.75
2018-10-17T23:28:45.841Z,35.10
2018-10-17T23:31:13.185Z,34.10
2018-10-17T23:33:40.574Z,37.15
2018-10-17T23:36:07.990Z,37.10
2018-10-17T23:38:36.059Z,39.90
2018-10-17T23:41:03.601Z,36.13
2018-10-17T23:43:31.370Z,35.60
2018-10-17T23:45:58.785Z,38.23
2018-10-17T23:48:27.194Z,37.45
2018-10-17T23:50:58.967Z,38.33
2018-10-17T23:53:26.801Z,40.03
2018-10-17T23:55:54.676Z,38.10
2018-10-17T23:58:22.027Z,35.95
